Time;durP1;ratioP1;P1;durP2;ratioP2;P2;SDS_P1;SDS_P2;PMS_P1;PMS_P2;Temp;Humidity;BMP_temperature;BMP_pressure;BME280_temperature;BME280_humidity;BME280_pressure;Samples;Min_cycle;Max_cycle;Signal;HPM_P1;HPM_P2
2023/06/28 00:00:05;;;;;;;10.27;7.55;;;21.70;99.90;;;;;;5017377;28;20549;-71
2023/06/28 00:02:35;;;;;;;11.48;8.20;;;21.80;99.90;;;;;;5014470;28;20029;-71
2023/06/28 00:05:08;;;;;;;10.25;7.45;;;21.70;99.90;;;;;;5013313;28;20037;-71
2023/06/28 00:07:34;;;;;;;13.07;8.50;;;21.60;99.90;;;;;;5013174;28;20030;-71
2023/06/28 00:10:00;;;;;;;9.80;7.03;;;21.50;99.90;;;;;;5024404;28;20029;-71
2023/06/28 00:12:29;;;;;;;10.13;7.57;;;21.60;99.90;;;;;;5024726;28;20029;-71
2023/06/28 00:14:56;;;;;;;11.07;7.43;;;21.70;99.90;;;;;;5020896;28;20018;-71
2023/06/28 00:17:27;;;;;;;10.27;7.07;;;21.90;99.90;;;;;;5016928;28;20442;-71
2023/06/28 00:20:00;;;;;;;11.60;8.13;;;21.90;99.90;;;;;;5020336;28;20499;-71
2023/06/28 00:22:31;;;;;;;10.43;7.22;;;22.10;99.90;;;;;;5027278;28;20036;-71
2023/06/28 00:24:59;;;;;;;11.00;7.38;;;22.10;99.90;;;;;;5017025;28;20030;-71
2023/06/28 00:27:28;;;;;;;10.27;6.82;;;22.10;99.90;;;;;;5023622;28;20180;-71
2023/06/28 00:29:55;;;;;;;10.32;7.22;;;21.80;99.90;;;;;;5020938;28;20419;-71
2023/06/28 00:32:21;;;;;;;10.35;6.40;;;21.80;99.90;;;;;;5021736;28;20038;-71
2023/06/28 00:34:47;;;;;;;12.18;6.45;;;21.60;99.90;;;;;;5020994;28;20394;-71
2023/06/28 00:37:13;;;;;;;9.07;6.38;;;21.40;99.90;;;;;;5020164;28;20100;-71
2023/06/28 00:39:39;;;;;;;8.70;6.32;;;21.40;99.90;;;;;;5024242;28;20034;-71
2023/06/28 00:42:05;;;;;;;15.07;7.38;;;21.40;99.90;;;;;;5019856;28;20032;-71
2023/06/28 00:44:30;;;;;;;8.82;6.38;;;21.40;99.90;;;;;;5009983;28;20029;-71
2023/06/28 00:46:58;;;;;;;10.32;7.43;;;21.30;99.90;;;;;;5023634;28;20558;-71
2023/06/28 00:49:28;;;;;;;11.68;7.15;;;21.20;99.90;;;;;;5024906;28;20041;-71
2023/06/28 00:51:55;;;;;;;9.90;6.63;;;21.20;99.90;;;;;;5018142;28;20030;-71
2023/06/28 00:54:21;;;;;;;10.52;7.00;;;21.30;99.90;;;;;;5015851;28;20064;-71
2023/06/28 00:56:48;;;;;;;10.57;7.20;;;21.20;99.90;;;;;;5015875;28;20080;-71
2023/06/28 00:59:15;;;;;;;10.48;7.18;;;21.10;99.90;;;;;;5018585;28;20037;-71
2023/06/28 01:01:41;;;;;;;10.20;6.47;;;21.40;99.90;;;;;;5020668;28;20514;-71
2023/06/28 01:04:07;;;;;;;9.60;6.10;;;21.50;99.90;;;;;;5025359;28;20033;-71
2023/06/28 01:06:36;;;;;;;9.15;6.40;;;21.50;99.90;;;;;;5016377;28;20084;-71
2023/06/28 01:09:08;;;;;;;9.90;6.82;;;21.40;99.90;;;;;;5017388;28;20034;-71
2023/06/28 01:11:34;;;;;;;9.38;6.03;;;21.30;99.90;;;;;;5016958;28;20030;-71
2023/06/28 01:14:01;;;;;;;9.52;6.72;;;21.30;99.90;;;;;;5017305;28;20030;-71
2023/06/28 01:16:27;;;;;;;9.52;6.85;;;21.20;99.90;;;;;;5023946;28;20030;-71
2023/06/28 01:18:53;;;;;;;10.27;6.50;;;21.10;99.90;;;;;;5018766;28;20048;-71
2023/06/28 01:21:22;;;;;;;9.60;6.97;;;21.00;99.90;;;;;;5021724;28;20033;-71
2023/06/28 01:23:48;;;;;;;12.00;8.43;;;20.90;99.90;;;;;;5017736;28;20034;-71
2023/06/28 01:26:16;;;;;;;10.98;7.45;;;20.90;99.90;;;;;;5020866;28;20379;-71
2023/06/28 01:28:43;;;;;;;12.68;8.00;;;20.90;99.90;;;;;;5012802;28;20377;-71
2023/06/28 01:31:11;;;;;;;13.43;7.45;;;20.90;99.90;;;;;;5020311;28;20034;-71
2023/06/28 01:33:38;;;;;;;10.27;7.22;;;21.00;99.90;;;;;;5017053;28;20030;-71
2023/06/28 01:36:04;;;;;;;9.38;6.85;;;21.10;99.90;;;;;;5021117;28;20067;-71
2023/06/28 01:38:31;;;;;;;10.43;7.18;;;21.00;99.90;;;;;;5019798;28;20030;-71
2023/06/28 01:40:58;;;;;;;10.85;6.57;;;21.10;99.90;;;;;;5022927;28;20100;-71
2023/06/28 01:43:24;;;;;;;9.32;6.65;;;21.20;99.90;;;;;;5023412;28;20127;-71
2023/06/28 01:45:50;;;;;;;13.07;7.40;;;21.20;99.90;;;;;;5014468;28;20467;-70
2023/06/28 01:48:16;;;;;;;10.00;6.63;;;21.40;99.90;;;;;;5022700;28;20037;-71
2023/06/28 01:50:42;;;;;;;9.25;6.25;;;21.30;99.90;;;;;;5018505;28;20025;-71
2023/06/28 01:53:08;;;;;;;10.40;6.50;;;21.40;99.90;;;;;;5016542;28;20032;-71
2023/06/28 01:55:34;;;;;;;9.95;6.38;;;21.30;99.90;;;;;;5020971;28;20033;-71
2023/06/28 01:57:59;;;;;;;11.13;6.80;;;21.40;99.90;;;;;;5019061;28;20034;-71
2023/06/28 02:00:25;;;;;;;9.43;6.28;;;21.30;99.90;;;;;;5014184;28;20025;-71
2023/06/28 02:02:53;;;;;;;9.65;6.65;;;21.40;99.90;;;;;;5026296;28;20416;-71
2023/06/28 02:05:19;;;;;;;11.30;6.75;;;21.40;99.90;;;;;;5020913;28;20045;-71
2023/06/28 02:07:45;;;;;;;11.18;7.53;;;21.40;99.90;;;;;;5015556;28;20033;-71
2023/06/28 02:10:11;;;;;;;11.35;8.00;;;21.40;99.90;;;;;;5020558;28;20486;-71
2023/06/28 02:12:36;;;;;;;14.32;7.95;;;21.30;99.90;;;;;;5013701;28;20026;-71
2023/06/28 02:15:04;;;;;;;11.40;7.68;;;21.30;99.90;;;;;;5011895;28;20025;-71
2023/06/28 02:17:31;;;;;;;10.55;7.03;;;21.30;99.90;;;;;;5013979;28;20395;-71
2023/06/28 02:19:58;;;;;;;10.98;7.50;;;21.20;99.90;;;;;;5012280;28;20064;-71
2023/06/28 02:22:26;;;;;;;9.52;7.25;;;21.20;99.90;;;;;;5017633;28;20029;-71
2023/06/28 02:24:52;;;;;;;9.50;6.72;;;21.30;99.90;;;;;;5015500;28;20030;-71
2023/06/28 02:27:19;;;;;;;8.13;6.18;;;21.30;99.90;;;;;;5011627;28;20329;-71
2023/06/28 02:29:44;;;;;;;11.80;6.72;;;21.20;99.90;;;;;;5019364;28;20030;-71
2023/06/28 02:32:12;;;;;;;8.95;6.45;;;21.30;99.90;;;;;;5020655;28;20498;-71
2023/06/28 02:34:37;;;;;;;11.43;7.95;;;21.20;99.90;;;;;;5020416;28;20033;-71
2023/06/28 02:37:03;;;;;;;10.10;7.43;;;20.90;99.90;;;;;;5017617;28;20036;-71
2023/06/28 02:39:29;;;;;;;11.63;8.00;;;20.80;99.90;;;;;;5022757;28;20037;-71
2023/06/28 02:41:55;;;;;;;10.68;7.25;;;20.80;99.90;;;;;;5018869;28;20022;-71
2023/06/28 02:44:20;;;;;;;9.10;7.00;;;20.50;99.90;;;;;;5016045;28;20037;-71
2023/06/28 02:46:46;;;;;;;10.60;7.35;;;20.50;99.90;;;;;;5010685;28;20033;-71
2023/06/28 02:49:12;;;;;;;9.88;6.50;;;20.50;99.90;;;;;;5014815;28;20065;-71
2023/06/28 02:51:37;;;;;;;11.73;6.85;;;20.60;99.90;;;;;;5018129;28;20116;-71
2023/06/28 02:54:03;;;;;;;11.48;7.38;;;20.50;99.90;;;;;;5015574;28;20026;-71
2023/06/28 02:56:29;;;;;;;11.55;7.90;;;20.60;99.90;;;;;;5015606;28;20029;-71
2023/06/28 02:58:55;;;;;;;10.20;7.30;;;20.50;99.90;;;;;;5011170;28;20053;-71
2023/06/28 03:01:20;;;;;;;12.43;8.20;;;20.50;99.90;;;;;;5019550;28;20509;-69
2023/06/28 03:03:47;;;;;;;9.88;6.30;;;20.60;99.90;;;;;;5011579;28;20591;-69
2023/06/28 03:06:14;;;;;;;10.52;6.07;;;20.60;99.90;;;;;;5013320;28;20025;-69
2023/06/28 03:08:41;;;;;;;14.15;6.57;;;20.40;99.90;;;;;;5008191;28;20034;-69
2023/06/28 03:11:07;;;;;;;8.88;5.72;;;20.10;99.90;;;;;;5011581;28;20038;-69
2023/06/28 03:13:33;;;;;;;11.07;6.30;;;20.10;99.90;;;;;;4998503;28;20038;-69
2023/06/28 03:15:59;;;;;;;13.55;6.25;;;20.10;99.90;;;;;;4905715;28;20132;-69
2023/06/28 03:18:24;;;;;;;11.13;6.95;;;19.90;99.90;;;;;;5016585;28;20092;-69
2023/06/28 03:20:50;;;;;;;8.95;6.43;;;19.90;99.90;;;;;;5013691;28;20399;-69
2023/06/28 03:23:16;;;;;;;13.15;7.53;;;19.90;99.90;;;;;;5008131;28;20030;-69
2023/06/28 03:25:41;;;;;;;9.95;6.38;;;20.00;99.90;;;;;;5010622;28;20391;-69
2023/06/28 03:28:07;;;;;;;8.45;5.70;;;20.00;99.90;;;;;;5008006;28;20069;-69
2023/06/28 03:30:33;;;;;;;9.18;5.95;;;20.00;99.90;;;;;;5013021;28;20034;-69
2023/06/28 03:32:59;;;;;;;9.85;6.90;;;19.90;99.90;;;;;;5017583;28;20033;-69
2023/06/28 03:35:24;;;;;;;14.90;6.43;;;20.00;99.90;;;;;;5003185;28;20064;-69
2023/06/28 03:37:55;;;;;;;10.00;6.75;;;20.10;99.90;;;;;;5012743;28;20128;-69
2023/06/28 03:40:21;;;;;;;9.95;6.13;;;20.10;99.90;;;;;;5013887;28;20096;-69
2023/06/28 03:42:47;;;;;;;10.35;6.07;;;20.20;99.90;;;;;;5007402;28;20036;-69
2023/06/28 03:45:14;;;;;;;14.30;7.10;;;20.20;99.90;;;;;;5016875;28;20033;-69
2023/06/28 03:47:40;;;;;;;16.67;8.38;;;20.30;99.90;;;;;;5017119;28;20036;-69
2023/06/28 03:50:06;;;;;;;10.10;5.40;;;20.40;99.90;;;;;;5010990;28;20025;-69
2023/06/28 03:52:32;;;;;;;8.65;5.50;;;20.40;99.90;;;;;;5015264;28;20120;-69
2023/06/28 03:54:58;;;;;;;16.40;7.97;;;20.40;99.90;;;;;;5021136;28;20136;-69
2023/06/28 03:57:23;;;;;;;16.00;7.22;;;20.30;99.90;;;;;;5012951;28;20044;-69
2023/06/28 03:59:49;;;;;;;14.90;6.80;;;20.20;99.90;;;;;;5011557;28;20104;-69
2023/06/28 04:02:15;;;;;;;9.50;6.80;;;20.40;99.90;;;;;;5010974;28;20101;-69
2023/06/28 04:04:40;;;;;;;9.05;6.78;;;20.40;99.90;;;;;;5009596;28;20076;-69
2023/06/28 04:07:07;;;;;;;9.82;5.68;;;20.40;99.90;;;;;;5011289;28;20030;-69
2023/06/28 04:09:32;;;;;;;10.50;6.93;;;20.40;99.90;;;;;;5009747;28;20458;-69
2023/06/28 04:11:58;;;;;;;11.38;6.25;;;20.50;99.90;;;;;;5010986;28;20034;-69
2023/06/28 04:14:24;;;;;;;9.90;6.93;;;20.60;99.90;;;;;;5012344;28;20618;-69
2023/06/28 04:16:53;;;;;;;13.10;7.97;;;20.60;99.90;;;;;;5008734;28;20155;-69
2023/06/28 04:19:19;;;;;;;9.68;6.72;;;20.70;99.90;;;;;;5014031;28;20047;-69
2023/06/28 04:21:45;;;;;;;9.55;6.13;;;20.60;99.90;;;;;;5017950;28;20030;-69
2023/06/28 04:24:11;;;;;;;11.10;6.00;;;20.50;99.90;;;;;;5005908;28;20034;-69
2023/06/28 04:26:36;;;;;;;8.93;5.82;;;20.60;99.90;;;;;;5016392;28;20035;-69
2023/06/28 04:29:02;;;;;;;8.63;5.63;;;20.60;99.90;;;;;;5012495;28;20528;-69
2023/06/28 04:31:28;;;;;;;8.75;5.65;;;20.70;99.90;;;;;;5015909;28;20610;-69
2023/06/28 04:33:57;;;;;;;10.38;5.95;;;20.70;99.90;;;;;;5006571;28;20030;-69
2023/06/28 04:36:26;;;;;;;10.57;7.03;;;20.70;99.90;;;;;;5016502;28;20037;-69
2023/06/28 04:38:54;;;;;;;14.50;6.07;;;20.80;99.90;;;;;;5011594;28;20025;-69
2023/06/28 04:41:25;;;;;;;11.80;7.05;;;20.70;99.90;;;;;;5014534;28;20053;-69
2023/06/28 04:43:55;;;;;;;12.02;6.82;;;20.40;99.90;;;;;;5014409;28;20427;-69
2023/06/28 04:46:22;;;;;;;9.75;6.72;;;20.50;99.90;;;;;;5011055;28;20042;-69
2023/06/28 04:48:48;;;;;;;9.90;7.13;;;20.60;99.90;;;;;;5012355;28;20076;-69
2023/06/28 04:51:14;;;;;;;11.48;8.23;;;20.60;99.90;;;;;;5018294;28;20029;-69
2023/06/28 04:53:40;;;;;;;11.38;8.25;;;20.40;99.90;;;;;;5015616;28;20025;-69
2023/06/28 04:56:05;;;;;;;10.65;7.15;;;20.50;99.90;;;;;;5009005;28;20752;-69
2023/06/28 04:58:33;;;;;;;9.98;7.32;;;20.60;99.90;;;;;;5013181;28;20561;-69
2023/06/28 05:01:01;;;;;;;10.80;7.05;;;20.60;99.90;;;;;;5014988;28;20029;-69
2023/06/28 05:03:27;;;;;;;12.02;7.68;;;20.40;99.90;;;;;;5015298;28;20091;-69
2023/06/28 05:05:56;;;;;;;15.10;8.40;;;20.30;99.90;;;;;;5011092;28;20037;-69
2023/06/28 05:08:22;;;;;;;12.75;8.23;;;20.30;99.90;;;;;;5016203;28;20046;-69
2023/06/28 05:10:48;;;;;;;11.88;7.97;;;20.40;99.90;;;;;;5016269;28;20053;-69
2023/06/28 05:13:14;;;;;;;9.10;6.85;;;20.30;99.90;;;;;;5010423;28;20112;-69
2023/06/28 05:15:40;;;;;;;10.55;6.72;;;20.10;99.90;;;;;;5015421;28;20132;-69
2023/06/28 05:18:05;;;;;;;9.18;5.95;;;20.00;99.90;;;;;;5008414;28;20560;-69
2023/06/28 05:20:31;;;;;;;12.68;6.97;;;20.20;99.90;;;;;;5014619;28;20983;-69
2023/06/28 05:23:16;;;;;;;9.77;7.00;;;20.30;99.90;;;;;;5010847;28;20026;-69
2023/06/28 05:25:43;;;;;;;9.90;6.72;;;20.10;99.90;;;;;;5010698;28;20406;-69
2023/06/28 05:28:11;;;;;;;10.30;7.25;;;20.20;99.90;;;;;;5014141;28;20061;-69
2023/06/28 05:30:38;;;;;;;7.47;5.60;;;20.20;99.90;;;;;;5011680;28;20479;-69
2023/06/28 05:33:04;;;;;;;10.18;6.20;;;20.40;99.90;;;;;;5014007;28;20555;-69
2023/06/28 05:35:33;;;;;;;9.45;6.03;;;20.60;99.90;;;;;;5001891;28;20117;-69
2023/06/28 05:38:00;;;;;;;9.27;6.07;;;20.50;99.90;;;;;;5014318;28;22389;-69
2023/06/28 05:40:30;;;;;;;10.98;6.40;;;20.40;99.90;;;;;;5014866;28;20489;-70
2023/06/28 05:42:58;;;;;;;8.52;6.18;;;20.20;99.90;;;;;;5019076;28;20026;-70
2023/06/28 05:45:28;;;;;;;9.35;6.47;;;20.20;99.90;;;;;;5017510;28;20209;-70
2023/06/28 05:47:54;;;;;;;8.77;6.15;;;20.30;99.90;;;;;;5012002;28;20048;-69
2023/06/28 05:50:23;;;;;;;11.05;6.53;;;20.30;99.90;;;;;;5009251;28;20032;-71
2023/06/28 05:52:49;;;;;;;11.95;7.15;;;20.40;99.90;;;;;;5002872;28;20514;-71
2023/06/28 05:55:16;;;;;;;15.75;7.90;;;20.60;99.90;;;;;;5008685;28;21113;-71
2023/06/28 05:57:41;;;;;;;9.68;6.60;;;20.80;99.90;;;;;;5008001;28;20064;-71
2023/06/28 06:00:10;;;;;;;11.43;6.95;;;20.70;99.90;;;;;;5004695;28;20661;-71
2023/06/28 06:02:35;;;;;;;11.00;7.47;;;21.00;99.90;;;;;;5004854;28;20052;-71
2023/06/28 06:05:03;;;;;;;9.95;6.80;;;21.10;99.90;;;;;;5012660;28;20030;-71
2023/06/28 06:07:29;;;;;;;12.00;7.97;;;21.30;99.90;;;;;;5006691;28;20408;-71
2023/06/28 06:09:55;;;;;;;21.80;8.07;;;21.30;99.90;;;;;;5004239;28;20298;-71
2023/06/28 06:12:22;;;;;;;12.20;8.07;;;21.40;99.90;;;;;;5010696;28;20379;-71
2023/06/28 06:14:50;;;;;;;11.43;7.70;;;21.50;99.90;;;;;;5007258;28;20045;-71
2023/06/28 06:17:16;;;;;;;10.73;7.65;;;21.50;99.90;;;;;;5009184;28;20036;-71
2023/06/28 06:19:42;;;;;;;11.88;7.43;;;21.60;99.90;;;;;;5010069;28;20139;-71
2023/06/28 06:22:07;;;;;;;10.82;7.63;;;21.60;99.90;;;;;;5006982;28;20459;-71
2023/06/28 06:24:33;;;;;;;12.60;9.23;;;21.50;99.90;;;;;;5009513;28;20828;-71
2023/06/28 06:26:59;;;;;;;12.65;8.40;;;21.60;99.90;;;;;;5005792;28;20022;-71
2023/06/28 06:29:24;;;;;;;15.30;9.32;;;21.60;99.90;;;;;;5001514;28;20782;-71
2023/06/28 06:31:50;;;;;;;11.18;7.70;;;21.80;99.90;;;;;;5005821;28;20167;-71
2023/06/28 06:34:16;;;;;;;17.98;8.30;;;22.20;99.90;;;;;;5003343;28;20026;-71
2023/06/28 06:36:41;;;;;;;12.70;9.13;;;22.40;99.90;;;;;;5011750;28;20049;-73
2023/06/28 06:39:07;;;;;;;11.82;8.98;;;22.40;99.90;;;;;;5009301;28;20037;-71
2023/06/28 06:41:33;;;;;;;12.70;8.27;;;22.50;99.90;;;;;;5011221;28;20033;-72
2023/06/28 06:43:58;;;;;;;13.40;9.43;;;22.40;99.90;;;;;;5007961;28;20030;-72
2023/06/28 06:46:24;;;;;;;13.60;9.15;;;22.50;99.90;;;;;;5018816;28;20025;-72
2023/06/28 06:48:50;;;;;;;13.02;9.05;;;22.80;99.90;;;;;;5021801;28;20033;-72
2023/06/28 06:51:16;;;;;;;13.90;9.10;;;23.00;99.90;;;;;;5020363;28;20380;-72
2023/06/28 06:53:41;;;;;;;11.95;8.10;;;23.10;99.90;;;;;;5020058;28;20750;-72
2023/06/28 06:56:07;;;;;;;13.32;8.82;;;23.30;99.90;;;;;;5021859;28;20495;-72
2023/06/28 06:58:33;;;;;;;11.52;9.13;;;23.30;99.90;;;;;;5020466;28;20034;-72
2023/06/28 07:00:59;;;;;;;13.23;9.25;;;23.10;99.90;;;;;;5020257;28;20034;-72
2023/06/28 07:03:24;;;;;;;13.13;8.85;;;23.00;99.90;;;;;;5021283;28;20033;-72
2023/06/28 07:05:51;;;;;;;13.73;9.00;;;23.00;99.90;;;;;;5018521;28;20029;-72
2023/06/28 07:08:17;;;;;;;11.68;9.00;;;23.20;99.90;;;;;;5019053;28;20037;-72
2023/06/28 07:10:43;;;;;;;15.60;9.07;;;23.40;99.90;;;;;;5020384;28;20038;-72
2023/06/28 07:13:10;;;;;;;12.30;9.23;;;23.20;99.90;;;;;;5019903;28;20025;-72
2023/06/28 07:15:36;;;;;;;11.75;8.45;;;23.50;99.90;;;;;;5020740;28;20044;-72
2023/06/28 07:18:02;;;;;;;11.90;8.15;;;23.40;99.90;;;;;;5025278;28;20387;-72
2023/06/28 07:20:28;;;;;;;11.43;8.38;;;23.60;99.90;;;;;;5024504;28;20120;-72
2023/06/28 07:22:53;;;;;;;13.07;9.30;;;23.60;99.90;;;;;;5024999;28;20112;-72
2023/06/28 07:25:19;;;;;;;17.10;9.30;;;23.60;99.90;;;;;;5025241;28;20036;-72
2023/06/28 07:27:45;;;;;;;11.52;9.43;;;23.90;99.90;;;;;;5024791;28;20063;-72
2023/06/28 07:30:11;;;;;;;10.52;8.13;;;24.00;99.90;;;;;;5025636;28;20021;-72
2023/06/28 07:32:36;;;;;;;15.70;8.77;;;24.00;99.90;;;;;;5024862;28;20037;-72
2023/06/28 07:35:02;;;;;;;10.38;7.47;;;24.10;99.90;;;;;;5024420;28;20053;-72
2023/06/28 07:37:30;;;;;;;10.95;8.32;;;24.10;99.90;;;;;;5024664;28;20033;-72
2023/06/28 07:39:57;;;;;;;13.98;9.25;;;24.00;99.90;;;;;;5025598;28;20021;-72
2023/06/28 07:42:23;;;;;;;13.13;9.38;;;23.90;99.90;;;;;;5024354;28;20347;-72
2023/06/28 07:44:49;;;;;;;21.73;10.43;;;23.90;99.90;;;;;;5024691;28;20080;-72
2023/06/28 07:47:15;;;;;;;18.30;9.60;;;24.00;99.90;;;;;;5024909;28;20483;-72
2023/06/28 07:49:41;;;;;;;12.13;8.73;;;24.10;99.90;;;;;;5024051;28;20041;-72
2023/06/28 07:52:07;;;;;;;9.32;7.43;;;23.90;99.90;;;;;;5025161;28;20641;-73
2023/06/28 07:54:32;;;;;;;11.25;8.05;;;23.90;99.90;;;;;;5024442;28;20041;-73
2023/06/28 07:56:59;;;;;;;10.82;8.65;;;24.10;99.90;;;;;;5023845;28;20443;-72
2023/06/28 07:59:25;;;;;;;9.70;6.82;;;24.70;99.90;;;;;;5024331;28;20048;-72
2023/06/28 08:01:50;;;;;;;12.55;8.23;;;25.20;99.90;;;;;;5021772;28;20589;-72
2023/06/28 08:04:16;;;;;;;11.25;7.75;;;25.00;99.90;;;;;;5023693;28;20398;-72
2023/06/28 08:06:43;;;;;;;9.48;7.68;;;25.30;99.90;;;;;;5024699;28;20438;-72
2023/06/28 08:09:09;;;;;;;8.98;7.43;;;25.20;99.90;;;;;;5024382;28;20655;-73
2023/06/28 08:11:34;;;;;;;9.25;7.30;;;25.70;99.90;;;;;;5023750;28;20137;-72
2023/06/28 08:14:00;;;;;;;9.80;7.22;;;25.80;99.90;;;;;;5024244;28;20116;-72
2023/06/28 08:16:26;;;;;;;9.80;7.00;;;25.90;99.90;;;;;;5023485;28;20109;-72
2023/06/28 08:18:51;;;;;;;10.18;6.65;;;25.90;99.90;;;;;;5023926;28;20408;-72
2023/06/28 08:21:17;;;;;;;11.38;6.85;;;26.10;99.90;;;;;;5024900;28;20487;-72
2023/06/28 08:23:43;;;;;;;7.78;5.45;;;26.00;99.20;;;;;;5022896;28;20088;-72
2023/06/28 08:26:08;;;;;;;8.40;5.93;;;26.00;99.10;;;;;;5023277;28;20127;-72
2023/06/28 08:28:34;;;;;;;9.98;6.10;;;26.20;99.40;;;;;;5023543;28;20052;-72
2023/06/28 08:31:00;;;;;;;10.77;6.55;;;26.30;99.00;;;;;;5023088;28;20021;-72
2023/06/28 08:33:26;;;;;;;11.02;6.18;;;26.60;98.70;;;;;;5022648;28;20029;-72
2023/06/28 08:35:52;;;;;;;10.30;5.60;;;26.70;98.70;;;;;;5020502;28;20427;-73
2023/06/28 08:38:17;;;;;;;8.88;5.30;;;26.70;98.20;;;;;;5023470;28;20029;-72
2023/06/28 08:40:44;;;;;;;10.02;5.93;;;26.80;97.60;;;;;;5023011;28;20031;-72
2023/06/28 08:43:12;;;;;;;9.85;6.25;;;26.80;97.60;;;;;;5023926;28;20379;-72
2023/06/28 08:45:39;;;;;;;7.78;5.65;;;26.90;96.90;;;;;;5022667;28;20029;-72
2023/06/28 08:48:05;;;;;;;8.25;6.15;;;26.60;96.70;;;;;;5023619;28;20059;-72
2023/06/28 08:50:31;;;;;;;7.13;5.45;;;26.70;96.90;;;;;;5024427;28;20040;-72
2023/06/28 08:52:59;;;;;;;7.43;5.72;;;26.80;96.80;;;;;;5022659;28;20030;-72
2023/06/28 08:55:25;;;;;;;9.73;6.25;;;26.70;96.90;;;;;;5022806;28;20073;-72
2023/06/28 08:57:52;;;;;;;8.57;6.50;;;26.40;97.10;;;;;;5024452;28;20037;-72
2023/06/28 09:00:18;;;;;;;8.35;6.32;;;26.20;97.20;;;;;;5023209;28;22918;-72
2023/06/28 09:02:44;;;;;;;10.60;6.32;;;26.60;97.80;;;;;;5022745;28;20059;-72
2023/06/28 09:05:10;;;;;;;9.80;6.53;;;26.40;97.80;;;;;;5023903;28;20072;-73
2023/06/28 09:07:40;;;;;;;17.63;6.63;;;26.20;97.90;;;;;;5023231;28;20042;-72
2023/06/28 09:10:08;;;;;;;11.40;7.15;;;26.20;98.40;;;;;;5022267;28;20029;-72
2023/06/28 09:12:34;;;;;;;9.48;6.95;;;26.10;98.10;;;;;;5023568;28;20938;-72
2023/06/28 09:15:00;;;;;;;12.88;7.10;;;26.30;98.20;;;;;;5023058;28;20083;-72
2023/06/28 09:17:25;;;;;;;10.57;7.20;;;26.30;98.00;;;;;;5022567;28;20025;-72
2023/06/28 09:19:52;;;;;;;10.32;6.68;;;26.60;98.00;;;;;;5020508;28;20065;-72
2023/06/28 09:22:18;;;;;;;9.32;7.07;;;26.50;97.80;;;;;;5023201;28;20032;-72
2023/06/28 09:24:48;;;;;;;10.35;7.80;;;26.20;98.10;;;;;;5022244;28;20026;-72
2023/06/28 09:27:15;;;;;;;11.63;7.15;;;26.20;98.30;;;;;;5022589;28;20029;-72
2023/06/28 09:29:41;;;;;;;10.10;7.30;;;26.30;98.20;;;;;;5023647;28;20025;-72
2023/06/28 09:32:07;;;;;;;12.23;8.07;;;26.30;98.00;;;;;;5022343;28;20034;-72
2023/06/28 09:34:37;;;;;;;11.45;7.60;;;26.20;98.10;;;;;;5021846;28;20048;-72
2023/06/28 09:37:05;;;;;;;11.85;7.80;;;26.20;97.90;;;;;;5022122;28;20045;-72
2023/06/28 09:39:36;;;;;;;9.52;6.60;;;26.00;97.60;;;;;;5021360;28;20060;-72
2023/06/28 09:42:02;;;;;;;15.35;7.25;;;26.10;97.80;;;;;;5023283;28;20041;-72
2023/06/28 09:44:29;;;;;;;13.20;7.57;;;26.30;97.60;;;;;;5022597;28;20029;-72
2023/06/28 09:47:00;;;;;;;10.98;6.95;;;26.60;97.30;;;;;;5022414;28;20057;-72
2023/06/28 09:49:26;;;;;;;9.93;6.95;;;26.90;97.40;;;;;;5022086;28;20045;-73
2023/06/28 09:52:01;;;;;;;10.25;7.00;;;27.20;96.80;;;;;;5022996;28;20030;-72
2023/06/28 09:54:48;;;;;;;12.32;6.15;;;27.40;95.20;;;;;;5021694;28;20041;-73
2023/06/28 09:57:14;;;;;;;11.00;6.72;;;27.40;95.80;;;;;;5020363;28;20116;-72
2023/06/28 09:59:41;;;;;;;11.10;6.65;;;27.40;95.70;;;;;;5021627;28;20040;-72
2023/06/28 10:02:08;;;;;;;12.13;6.55;;;27.50;95.70;;;;;;5023273;28;20083;-72
2023/06/28 10:04:35;;;;;;;8.45;6.30;;;27.50;95.50;;;;;;5022064;28;20041;-72
2023/06/28 10:07:03;;;;;;;8.98;6.07;;;27.10;95.10;;;;;;5021543;28;20049;-72
2023/06/28 10:09:34;;;;;;;10.75;6.93;;;27.20;95.40;;;;;;5021913;28;20128;-72
2023/06/28 10:12:03;;;;;;;15.10;6.53;;;27.80;95.40;;;;;;5020428;28;20021;-72
2023/06/28 10:14:34;;;;;;;10.77;5.10;;;27.70;93.90;;;;;;5024387;28;20095;-72
2023/06/28 10:17:00;;;;;;;9.75;5.82;;;27.60;93.80;;;;;;5024514;28;20029;-72
2023/06/28 10:19:28;;;;;;;7.15;5.45;;;28.00;93.70;;;;;;5025397;28;20060;-72
2023/06/28 10:21:55;;;;;;;10.18;5.65;;;28.30;93.50;;;;;;5024429;28;20039;-72
2023/06/28 10:24:21;;;;;;;9.60;4.60;;;28.10;92.20;;;;;;5022915;28;20095;-72
2023/06/28 10:26:49;;;;;;;6.40;4.75;;;27.90;91.50;;;;;;5025558;28;20057;-72
2023/06/28 10:29:15;;;;;;;8.55;4.68;;;27.90;91.50;;;;;;5024632;28;20041;-72
2023/06/28 10:31:41;;;;;;;6.40;4.50;;;28.10;91.50;;;;;;5024023;28;20415;-72
2023/06/28 10:34:07;;;;;;;9.23;4.00;;;28.70;90.90;;;;;;5025381;28;20180;-72
2023/06/28 10:36:33;;;;;;;7.63;3.97;;;28.80;90.50;;;;;;5024623;28;20520;-73
2023/06/28 10:38:58;;;;;;;7.88;4.18;;;29.20;90.00;;;;;;5024587;28;20037;-72
2023/06/28 10:41:25;;;;;;;9.68;5.00;;;29.20;86.50;;;;;;5025255;28;20040;-72
2023/06/28 10:44:04;;;;;;;6.63;4.30;;;29.00;90.10;;;;;;5024228;28;20421;-72
2023/06/28 10:46:31;;;;;;;7.53;4.38;;;28.80;89.20;;;;;;5023936;28;20085;-72
2023/06/28 10:49:02;;;;;;;7.70;4.82;;;28.50;89.50;;;;;;5025273;28;20052;-73
2023/06/28 10:51:30;;;;;;;7.32;5.07;;;28.40;90.60;;;;;;5023058;28;20117;-73
2023/06/28 10:54:08;;;;;;;7.65;4.13;;;28.50;89.80;;;;;;5021377;28;20033;-72
2023/06/28 10:57:00;;;;;;;8.23;5.20;;;29.00;90.70;;;;;;5024026;28;20029;-73
2023/06/28 10:59:26;;;;;;;9.93;5.32;;;28.60;90.00;;;;;;5021349;28;20025;-72
2023/06/28 11:01:54;;;;;;;9.05;5.40;;;29.00;90.10;;;;;;5018855;28;20108;-72
2023/06/28 11:04:22;;;;;;;8.13;4.85;;;29.20;89.50;;;;;;5023745;28;20037;-72
2023/06/28 11:06:48;;;;;;;7.82;5.22;;;29.40;90.00;;;;;;5025480;28;20037;-72
2023/06/28 11:09:16;;;;;;;8.60;6.55;;;30.10;90.80;;;;;;5024247;28;20128;-72
2023/06/28 11:11:57;;;;;;;9.65;6.05;;;30.00;90.20;;;;;;5023565;28;20079;-72
2023/06/28 11:14:27;;;;;;;8.00;5.55;;;30.00;91.40;;;;;;5023810;28;20034;-72
2023/06/28 11:17:01;;;;;;;9.82;6.10;;;29.70;91.90;;;;;;5024645;28;20076;-72
2023/06/28 11:19:27;;;;;;;9.50;5.88;;;30.20;91.00;;;;;;5023568;28;20482;-72
2023/06/28 11:22:02;;;;;;;6.78;5.65;;;29.80;91.40;;;;;;5022882;28;20029;-73
2023/06/28 11:24:37;;;;;;;7.60;5.70;;;29.80;92.40;;;;;;5023874;28;20029;-72
2023/06/28 11:27:08;;;;;;;9.38;6.07;;;30.50;91.40;;;;;;5022938;28;20533;-72
2023/06/28 11:29:56;;;;;;;7.93;5.68;;;30.40;90.70;;;;;;5025072;28;20076;-73
2023/06/28 11:32:26;;;;;;;7.60;5.47;;;30.20;90.90;;;;;;5021478;28;20079;-72
2023/06/28 11:34:57;;;;;;;10.73;5.95;;;29.50;91.70;;;;;;5023623;28;20463;-72
2023/06/28 11:37:23;;;;;;;7.75;5.40;;;28.90;92.20;;;;;;5020421;28;20104;-72
2023/06/28 11:39:50;;;;;;;9.82;5.90;;;28.50;92.40;;;;;;5023944;28;20033;-72
2023/06/28 11:42:17;;;;;;;11.63;5.05;;;28.20;92.60;;;;;;5024524;28;20057;-72
2023/06/28 11:44:47;;;;;;;7.18;4.85;;;28.20;92.30;;;;;;5023825;28;20135;-72
2023/06/28 11:47:18;;;;;;;7.95;4.47;;;28.30;92.60;;;;;;5023524;28;20048;-72
2023/06/28 11:49:44;;;;;;;30.10;6.03;;;28.40;92.40;;;;;;5024798;28;20033;-72
2023/06/28 11:52:10;;;;;;;8.68;4.70;;;28.50;92.30;;;;;;5023048;28;20025;-73
2023/06/28 11:54:36;;;;;;;7.38;4.55;;;28.40;92.70;;;;;;5022406;28;20032;-73
2023/06/28 11:57:01;;;;;;;6.88;4.18;;;28.20;91.90;;;;;;5020402;28;20028;-73
2023/06/28 11:59:30;;;;;;;6.88;4.45;;;28.20;92.30;;;;;;5019231;28;20116;-72
2023/06/28 12:02:05;;;;;;;6.25;4.40;;;28.20;92.40;;;;;;5020125;28;20116;-72
2023/06/28 12:04:31;;;;;;;6.95;3.80;;;28.10;92.50;;;;;;5024191;28;20021;-72
2023/06/28 12:06:59;;;;;;;6.63;3.78;;;27.80;91.90;;;;;;5024979;28;20073;-72
2023/06/28 12:09:27;;;;;;;6.90;4.32;;;27.90;92.40;;;;;;5024493;28;20037;-72
2023/06/28 12:12:05;;;;;;;6.28;4.03;;;27.90;92.00;;;;;;5022799;28;20036;-72
2023/06/28 12:14:46;;;;;;;12.32;4.45;;;27.90;92.10;;;;;;5024991;28;20541;-72
2023/06/28 12:17:12;;;;;;;8.13;4.15;;;27.60;91.70;;;;;;5023989;28;20391;-72
2023/06/28 12:19:40;;;;;;;9.38;3.72;;;27.50;92.50;;;;;;5023538;28;20029;-72
2023/06/28 12:22:07;;;;;;;8.35;4.30;;;27.60;92.30;;;;;;5023127;28;20549;-72
2023/06/28 12:24:34;;;;;;;6.47;3.58;;;28.00;92.50;;;;;;5024565;28;20037;-72
2023/06/28 12:27:03;;;;;;;9.15;4.55;;;28.10;92.00;;;;;;5024844;28;20037;-72
2023/06/28 12:29:31;;;;;;;7.45;3.90;;;27.90;92.20;;;;;;5022987;28;20045;-72
2023/06/28 12:32:11;;;;;;;6.07;3.88;;;27.80;91.90;;;;;;5023577;28;20087;-72
2023/06/28 12:34:38;;;;;;;8.32;3.25;;;28.10;92.30;;;;;;5024336;28;20049;-73
2023/06/28 12:37:08;;;;;;;7.82;3.97;;;28.10;92.20;;;;;;5024012;28;20118;-72
2023/06/28 12:39:37;;;;;;;7.18;4.15;;;28.00;92.10;;;;;;5023336;28;20095;-72